createdAt,value
2022-10-04T00:02:15.051Z,9.00
2022-10-04T00:07:22.655Z,8.70
2022-10-04T00:12:46.914Z,8.60
2022-10-04T00:18:20.956Z,8.60
2022-10-04T00:23:26.210Z,8.60
2022-10-04T00:28:30.393Z,8.60
2022-10-04T00:33:39.497Z,8.60
2022-10-04T00:38:41.376Z,8.80
2022-10-04T00:43:48.119Z,8.70
2022-10-04T00:49:06.046Z,8.80
2022-10-04T00:54:14.563Z,8.70
2022-10-04T00:59:56.416Z,8.50
2022-10-04T01:05:05.211Z,8.50
2022-10-04T01:10:56.663Z,8.50
2022-10-04T01:16:20.258Z,8.50
2022-10-04T01:21:28.380Z,8.40
2022-10-04T01:26:42.652Z,8.40
2022-10-04T01:31:47.264Z,8.30
2022-10-04T01:36:52.467Z,8.20
2022-10-04T01:42:14.880Z,8.30
2022-10-04T01:47:23.584Z,8.20
2022-10-04T01:52:41.297Z,8.10
2022-10-04T01:58:03.071Z,8.20
2022-10-04T02:03:20.814Z,7.90
2022-10-04T02:08:27.488Z,8.00
2022-10-04T02:13:36.121Z,7.90
2022-10-04T02:18:40.255Z,7.80
2022-10-04T02:23:43.177Z,7.70
2022-10-04T02:28:44.947Z,7.60
2022-10-04T02:33:50.022Z,7.60
2022-10-04T02:39:16.855Z,7.60
2022-10-04T02:44:26.383Z,7.70
2022-10-04T02:49:48.452Z,7.60
2022-10-04T02:55:02.565Z,7.70
2022-10-04T03:00:16.695Z,7.80
2022-10-04T03:05:18.994Z,7.80
2022-10-04T03:10:21.976Z,7.70
2022-10-04T03:15:23.867Z,7.70
2022-10-04T03:20:26.190Z,7.70
2022-10-04T03:25:41.495Z,7.60
2022-10-04T03:30:45.617Z,7.80
2022-10-04T03:35:51.932Z,7.90
2022-10-04T03:40:59.694Z,7.90
2022-10-04T03:46:05.245Z,7.90
2022-10-04T03:51:12.990Z,7.80
2022-10-04T03:56:24.648Z,7.80
2022-10-04T04:01:45.440Z,7.80
2022-10-04T04:06:59.108Z,7.80
2022-10-04T04:12:04.389Z,7.70
2022-10-04T04:17:27.254Z,7.70
2022-10-04T04:22:31.366Z,7.80
2022-10-04T04:27:37.377Z,7.90
2022-10-04T04:32:50.005Z,7.80
2022-10-04T04:38:12.561Z,7.80
2022-10-04T04:43:19.588Z,7.80
2022-10-04T04:48:21.728Z,7.80
2022-10-04T04:53:28.872Z,7.70
2022-10-04T04:58:35.516Z,7.80
2022-10-04T05:03:37.319Z,7.80
2022-10-04T05:08:41.571Z,7.90
2022-10-04T05:13:51.411Z,7.80
2022-10-04T05:19:03.111Z,7.70
2022-10-04T05:24:19.518Z,7.80
2022-10-04T05:29:25.589Z,7.90
2022-10-04T05:34:31.020Z,8.10
2022-10-04T05:39:37.578Z,8.10
2022-10-04T05:44:52.820Z,8.10
2022-10-04T05:49:57.844Z,8.20
2022-10-04T05:55:23.529Z,8.20
2022-10-04T06:00:53.102Z,8.30
2022-10-04T06:06:00.356Z,8.30
2022-10-04T06:11:22.935Z,8.50
2022-10-04T06:16:49.263Z,8.60
2022-10-04T06:21:57.076Z,8.50
2022-10-04T06:27:10.963Z,8.60
2022-10-04T06:32:38.243Z,8.70
2022-10-04T06:38:04.231Z,8.70
2022-10-04T06:43:35.750Z,8.70
2022-10-04T06:48:57.979Z,8.90
2022-10-04T06:54:18.715Z,8.90
2022-10-04T06:59:55.529Z,9.10
2022-10-04T07:05:09.736Z,9.40
2022-10-04T07:10:33.267Z,9.50
2022-10-04T07:15:51.027Z,9.60
2022-10-04T07:21:02.979Z,9.50
2022-10-04T07:26:16.987Z,9.60
2022-10-04T07:31:27.281Z,9.60
2022-10-04T07:36:57.156Z,9.70
2022-10-04T07:42:13.593Z,10.10
2022-10-04T07:47:25.689Z,10.50
2022-10-04T07:52:52.743Z,10.90
2022-10-04T07:58:18.808Z,11.40
2022-10-04T08:03:34.892Z,12.40
2022-10-04T08:08:59.069Z,13.40
2022-10-04T08:14:22.409Z,13.90
2022-10-04T08:20:03.316Z,14.80
2022-10-04T08:25:27.823Z,15.10
2022-10-04T08:30:39.744Z,14.80
2022-10-04T08:36:11.687Z,14.60
2022-10-04T08:41:55.312Z,14.80
2022-10-04T08:47:24.818Z,14.90
2022-10-04T08:52:37.012Z,15.00
2022-10-04T08:58:01.481Z,14.90
2022-10-04T09:03:26.444Z,15.50
2022-10-04T09:08:58.413Z,15.50
2022-10-04T09:14:34.145Z,15.10
2022-10-04T09:20:14.300Z,15.00
2022-10-04T09:25:47.671Z,14.80
2022-10-04T09:31:41.297Z,15.40
2022-10-04T09:37:10.084Z,16.00
2022-10-04T09:42:30.745Z,17.30
2022-10-04T09:47:45.607Z,16.40
2022-10-04T09:53:06.376Z,16.30
2022-10-04T09:58:22.959Z,17.10
2022-10-04T10:03:41.805Z,17.90
2022-10-04T10:08:55.382Z,17.50
2022-10-04T10:14:08.024Z,20.10
2022-10-04T10:19:40.896Z,20.60
2022-10-04T10:25:10.255Z,21.20
2022-10-04T10:30:19.127Z,22.90
2022-10-04T10:35:45.457Z,23.00
2022-10-04T10:41:20.076Z,22.80
2022-10-04T10:46:39.103Z,23.30
2022-10-04T10:52:25.722Z,23.20
2022-10-04T10:57:55.997Z,24.20
2022-10-04T11:03:32.291Z,22.80
2022-10-04T11:08:58.818Z,23.50
2022-10-04T11:14:37.571Z,23.20
2022-10-04T11:20:24.764Z,23.10
2022-10-04T11:26:15.548Z,22.60
2022-10-04T11:31:53.903Z,22.00
2022-10-04T11:37:33.365Z,22.30
2022-10-04T11:42:38.125Z,23.10
2022-10-04T11:47:50.303Z,22.60
2022-10-04T11:53:07.377Z,23.30
2022-10-04T11:58:21.121Z,22.60
2022-10-04T12:04:01.008Z,22.30
2022-10-04T12:09:21.293Z,22.30
2022-10-04T12:14:32.042Z,22.40
2022-10-04T12:20:18.902Z,22.20
2022-10-04T12:25:30.170Z,21.80
2022-10-04T12:30:46.460Z,21.90
2022-10-04T12:36:06.825Z,21.70
2022-10-04T12:41:27.683Z,21.00
2022-10-04T12:47:00.356Z,21.30
2022-10-04T12:52:21.040Z,20.80
2022-10-04T12:57:29.085Z,22.30
2022-10-04T13:02:55.748Z,22.80
2022-10-04T13:08:05.698Z,22.60
2022-10-04T13:13:32.479Z,22.60
2022-10-04T13:18:40.153Z,21.60
2022-10-04T13:23:47.794Z,22.50
2022-10-04T13:29:03.317Z,22.50
2022-10-04T13:34:33.457Z,21.90
2022-10-04T13:39:41.215Z,22.50
2022-10-04T13:45:04.475Z,22.40
2022-10-04T13:50:15.359Z,22.30
2022-10-04T13:56:14.344Z,21.90
2022-10-04T14:01:41.148Z,22.50
2022-10-04T14:07:01.651Z,22.30
2022-10-04T14:12:32.233Z,22.30
2022-10-04T14:17:47.405Z,22.00
2022-10-04T14:22:53.752Z,21.80
2022-10-04T14:28:11.085Z,21.90
2022-10-04T14:33:34.173Z,21.70
2022-10-04T14:39:14.506Z,21.40
2022-10-04T14:44:45.206Z,21.80
2022-10-04T14:50:18.969Z,21.60
2022-10-04T14:55:33.940Z,21.60
2022-10-04T15:00:55.757Z,21.30
2022-10-04T15:06:13.086Z,21.40
2022-10-04T15:11:19.711Z,21.50
2022-10-04T15:16:40.401Z,21.50
2022-10-04T15:21:59.847Z,20.90
2022-10-04T15:27:20.722Z,20.20
2022-10-04T15:32:25.466Z,19.60
2022-10-04T15:38:04.396Z,19.00
2022-10-04T15:43:16.670Z,18.70
2022-10-04T15:48:32.953Z,18.40
2022-10-04T15:54:12.465Z,18.40
2022-10-04T15:59:35.330Z,18.10
2022-10-04T16:04:41.632Z,18.00
2022-10-04T16:10:17.601Z,17.50
2022-10-04T16:15:38.187Z,17.40
2022-10-04T16:21:12.713Z,17.10
2022-10-04T16:26:34.571Z,17.00
2022-10-04T16:31:46.142Z,16.70
2022-10-04T16:36:52.519Z,16.60
2022-10-04T16:42:06.732Z,16.30
2022-10-04T16:47:30.885Z,16.10
2022-10-04T16:52:58.869Z,16.00
2022-10-04T16:58:28.562Z,15.60
2022-10-04T17:03:36.548Z,15.30
2022-10-04T17:08:48.036Z,15.00
2022-10-04T17:14:06.723Z,14.70
2022-10-04T17:19:28.177Z,14.40
2022-10-04T17:24:51.534Z,14.10
2022-10-04T17:30:05.257Z,13.90
2022-10-04T17:35:39.315Z,13.80
2022-10-04T17:41:09.508Z,13.90
2022-10-04T17:46:30.515Z,13.70
2022-10-04T17:52:02.052Z,13.70
2022-10-04T17:57:03.800Z,13.60
2022-10-04T18:02:24.317Z,13.40
2022-10-04T18:07:37.797Z,13.50
2022-10-04T18:13:03.550Z,13.50
2022-10-04T18:18:18.691Z,13.30
2022-10-04T18:23:27.184Z,13.00
2022-10-04T18:28:29.073Z,13.10
2022-10-04T18:33:39.970Z,13.10
2022-10-04T18:38:44.795Z,13.10
2022-10-04T18:44:17.469Z,13.00
2022-10-04T18:49:26.013Z,13.00
2022-10-04T18:54:55.085Z,13.20
2022-10-04T19:00:31.896Z,13.20
2022-10-04T19:06:07.235Z,13.50
2022-10-04T19:11:15.980Z,13.60
2022-10-04T19:16:37.747Z,13.40
2022-10-04T19:21:45.258Z,13.20
2022-10-04T19:27:09.177Z,13.10
2022-10-04T19:32:20.405Z,13.00
2022-10-04T19:37:50.580Z,12.80
2022-10-04T19:43:07.239Z,12.80
2022-10-04T19:48:24.257Z,12.80
2022-10-04T19:53:42.704Z,12.90
2022-10-04T19:58:52.646Z,12.80
2022-10-04T20:04:13.003Z,12.70
2022-10-04T20:09:45.437Z,12.50
2022-10-04T20:14:48.149Z,12.20
2022-10-04T20:19:49.909Z,12.10
2022-10-04T20:24:51.757Z,12.00
2022-10-04T20:29:58.926Z,11.80
2022-10-04T20:35:02.636Z,11.70
2022-10-04T20:40:06.511Z,11.70
2022-10-04T20:45:11.537Z,11.60
2022-10-04T20:50:18.160Z,11.60
2022-10-04T20:55:28.162Z,11.50
2022-10-04T21:00:35.861Z,11.50
2022-10-04T21:05:38.080Z,11.60
2022-10-04T21:10:59.925Z,11.60
2022-10-04T21:16:01.777Z,11.60
2022-10-04T21:21:03.760Z,11.80
2022-10-04T21:26:25.005Z,11.80
2022-10-04T21:31:26.978Z,11.70
2022-10-04T21:36:28.783Z,11.60
2022-10-04T21:41:30.763Z,11.60
2022-10-04T21:46:33.621Z,11.50
2022-10-04T21:51:39.984Z,11.40
2022-10-04T21:56:41.725Z,11.30
2022-10-04T22:01:43.466Z,11.30
2022-10-04T22:06:45.495Z,11.20
2022-10-04T22:11:47.477Z,11.20
2022-10-04T22:16:49.905Z,11.40
2022-10-04T22:21:52.266Z,11.60
2022-10-04T22:26:54.029Z,11.80
2022-10-04T22:31:55.942Z,11.90
2022-10-04T22:36:57.755Z,12.00
2022-10-04T22:42:01.214Z,12.20
2022-10-04T22:47:04.407Z,12.20
2022-10-04T22:52:19.670Z,12.40
2022-10-04T22:57:21.746Z,12.50
2022-10-04T23:02:28.414Z,12.50
2022-10-04T23:07:33.743Z,12.40
2022-10-04T23:12:38.852Z,12.40
2022-10-04T23:17:40.680Z,12.40
2022-10-04T23:22:47.916Z,12.30
2022-10-04T23:27:49.714Z,12.20
2022-10-04T23:32:56.650Z,11.90
2022-10-04T23:37:58.803Z,11.80
2022-10-04T23:43:03.723Z,11.60
2022-10-04T23:48:08.521Z,11.40
2022-10-04T23:53:26.829Z,11.20
2022-10-04T23:58:40.610Z,11.20
